sensor_id;sensor_type;location;lat;lon;timestamp;P1;durP1;ratioP1;P2;durP2;ratioP2
10882;SDS011;5494;51.796;10.952;2022-12-05T00:01:49;21.67;;;10.52;;
10882;SDS011;5494;51.796;10.952;2022-12-05T00:04:17;21.65;;;11.18;;
10882;SDS011;5494;51.796;10.952;2022-12-05T00:06:45;20.83;;;9.13;;
10882;SDS011;5494;51.796;10.952;2022-12-05T00:09:15;16.30;;;9.40;;
10882;SDS011;5494;51.796;10.952;2022-12-05T00:11:43;20.10;;;10.25;;
10882;SDS011;5494;51.796;10.952;2022-12-05T00:14:12;15.35;;;9.82;;
10882;SDS011;5494;51.796;10.952;2022-12-05T00:16:41;16.63;;;8.73;;
10882;SDS011;5494;51.796;10.952;2022-12-05T00:19:10;20.40;;;9.93;;
10882;SDS011;5494;51.796;10.952;2022-12-05T00:21:41;16.30;;;9.57;;
10882;SDS011;5494;51.796;10.952;2022-12-05T00:24:10;21.42;;;9.85;;
10882;SDS011;5494;51.796;10.952;2022-12-05T00:26:43;19.95;;;10.77;;
10882;SDS011;5494;51.796;10.952;2022-12-05T00:29:11;16.92;;;9.32;;
10882;SDS011;5494;51.796;10.952;2022-12-05T00:31:40;14.13;;;9.38;;
10882;SDS011;5494;51.796;10.952;2022-12-05T00:34:08;17.30;;;9.18;;
10882;SDS011;5494;51.796;10.952;2022-12-05T00:36:36;16.15;;;9.57;;
10882;SDS011;5494;51.796;10.952;2022-12-05T00:39:05;17.10;;;9.00;;
10882;SDS011;5494;51.796;10.952;2022-12-05T00:41:36;12.48;;;8.45;;
10882;SDS011;5494;51.796;10.952;2022-12-05T00:44:06;18.25;;;9.60;;
10882;SDS011;5494;51.796;10.952;2022-12-05T00:46:36;19.77;;;9.27;;
10882;SDS011;5494;51.796;10.952;2022-12-05T00:49:05;15.93;;;8.85;;
10882;SDS011;5494;51.796;10.952;2022-12-05T00:51:35;16.50;;;8.88;;
10882;SDS011;5494;51.796;10.952;2022-12-05T00:54:06;16.52;;;9.27;;
10882;SDS011;5494;51.796;10.952;2022-12-05T00:56:37;16.85;;;8.77;;
10882;SDS011;5494;51.796;10.952;2022-12-05T00:59:07;15.23;;;8.30;;
10882;SDS011;5494;51.796;10.952;2022-12-05T01:01:40;14.03;;;8.17;;
10882;SDS011;5494;51.796;10.952;2022-12-05T01:04:10;14.63;;;8.80;;
10882;SDS011;5494;51.796;10.952;2022-12-05T01:06:42;18.00;;;9.27;;
10882;SDS011;5494;51.796;10.952;2022-12-05T01:09:11;18.73;;;9.57;;
10882;SDS011;5494;51.796;10.952;2022-12-05T01:11:42;17.77;;;9.05;;
10882;SDS011;5494;51.796;10.952;2022-12-05T01:14:13;17.70;;;9.60;;
10882;SDS011;5494;51.796;10.952;2022-12-05T01:16:43;18.90;;;9.52;;
10882;SDS011;5494;51.796;10.952;2022-12-05T01:19:15;15.68;;;8.32;;
10882;SDS011;5494;51.796;10.952;2022-12-05T01:21:46;16.08;;;8.35;;
10882;SDS011;5494;51.796;10.952;2022-12-05T01:24:15;17.88;;;9.13;;
10882;SDS011;5494;51.796;10.952;2022-12-05T01:26:44;18.20;;;9.25;;
10882;SDS011;5494;51.796;10.952;2022-12-05T01:29:16;18.15;;;10.23;;
10882;SDS011;5494;51.796;10.952;2022-12-05T01:31:47;14.20;;;9.07;;
10882;SDS011;5494;51.796;10.952;2022-12-05T01:34:16;18.08;;;9.65;;
10882;SDS011;5494;51.796;10.952;2022-12-05T01:36:44;19.30;;;8.55;;
10882;SDS011;5494;51.796;10.952;2022-12-05T01:39:13;21.75;;;9.82;;
10882;SDS011;5494;51.796;10.952;2022-12-05T01:41:47;15.10;;;8.00;;
10882;SDS011;5494;51.796;10.952;2022-12-05T01:47:29;17.17;;;9.57;;
10882;SDS011;5494;51.796;10.952;2022-12-05T01:50:02;17.73;;;9.10;;
10882;SDS011;5494;51.796;10.952;2022-12-05T01:52:31;22.80;;;10.33;;
10882;SDS011;5494;51.796;10.952;2022-12-05T01:55:03;15.55;;;9.00;;
10882;SDS011;5494;51.796;10.952;2022-12-05T01:57:38;19.10;;;9.18;;
10882;SDS011;5494;51.796;10.952;2022-12-05T02:00:10;17.55;;;8.57;;
10882;SDS011;5494;51.796;10.952;2022-12-05T02:02:42;16.50;;;9.07;;
10882;SDS011;5494;51.796;10.952;2022-12-05T02:05:16;20.27;;;9.50;;
10882;SDS011;5494;51.796;10.952;2022-12-05T02:07:50;17.58;;;9.40;;
10882;SDS011;5494;51.796;10.952;2022-12-05T02:10:19;16.10;;;8.13;;
10882;SDS011;5494;51.796;10.952;2022-12-05T02:12:48;14.85;;;8.82;;
10882;SDS011;5494;51.796;10.952;2022-12-05T02:15:22;14.85;;;8.63;;
10882;SDS011;5494;51.796;10.952;2022-12-05T02:18:11;15.65;;;8.75;;
10882;SDS011;5494;51.796;10.952;2022-12-05T02:24:26;13.38;;;8.13;;
10882;SDS011;5494;51.796;10.952;2022-12-05T02:27:35;17.35;;;8.45;;
10882;SDS011;5494;51.796;10.952;2022-12-05T02:30:36;16.40;;;8.15;;
10882;SDS011;5494;51.796;10.952;2022-12-05T02:33:10;13.52;;;8.50;;
10882;SDS011;5494;51.796;10.952;2022-12-05T02:35:49;16.70;;;8.60;;
10882;SDS011;5494;51.796;10.952;2022-12-05T02:38:30;14.32;;;7.75;;
10882;SDS011;5494;51.796;10.952;2022-12-05T02:41:10;16.58;;;8.50;;
10882;SDS011;5494;51.796;10.952;2022-12-05T02:43:46;14.73;;;7.72;;
10882;SDS011;5494;51.796;10.952;2022-12-05T02:46:26;13.77;;;7.55;;
10882;SDS011;5494;51.796;10.952;2022-12-05T02:48:59;13.23;;;7.05;;
10882;SDS011;5494;51.796;10.952;2022-12-05T02:51:32;13.60;;;6.78;;
10882;SDS011;5494;51.796;10.952;2022-12-05T02:54:09;12.90;;;7.18;;
10882;SDS011;5494;51.796;10.952;2022-12-05T02:56:42;13.10;;;7.05;;
10882;SDS011;5494;51.796;10.952;2022-12-05T02:59:13;12.48;;;7.07;;
10882;SDS011;5494;51.796;10.952;2022-12-05T03:01:50;10.98;;;6.60;;
10882;SDS011;5494;51.796;10.952;2022-12-05T03:04:20;11.57;;;7.40;;
10882;SDS011;5494;51.796;10.952;2022-12-05T03:06:52;11.13;;;6.75;;
10882;SDS011;5494;51.796;10.952;2022-12-05T03:09:26;12.18;;;6.78;;
10882;SDS011;5494;51.796;10.952;2022-12-05T03:12:02;10.90;;;6.47;;
10882;SDS011;5494;51.796;10.952;2022-12-05T03:14:40;11.67;;;7.23;;
10882;SDS011;5494;51.796;10.952;2022-12-05T03:17:16;13.43;;;7.53;;
10882;SDS011;5494;51.796;10.952;2022-12-05T03:19:50;11.17;;;6.33;;
10882;SDS011;5494;51.796;10.952;2022-12-05T03:22:25;10.75;;;6.63;;
10882;SDS011;5494;51.796;10.952;2022-12-05T03:25:00;11.68;;;7.35;;
10882;SDS011;5494;51.796;10.952;2022-12-05T03:27:31;13.05;;;6.47;;
10882;SDS011;5494;51.796;10.952;2022-12-05T03:30:11;9.10;;;5.68;;
10882;SDS011;5494;51.796;10.952;2022-12-05T03:32:47;11.65;;;6.03;;
10882;SDS011;5494;51.796;10.952;2022-12-05T03:35:25;8.65;;;6.03;;
10882;SDS011;5494;51.796;10.952;2022-12-05T03:38:05;10.73;;;5.78;;
10882;SDS011;5494;51.796;10.952;2022-12-05T03:40:39;8.95;;;5.55;;
10882;SDS011;5494;51.796;10.952;2022-12-05T03:43:15;8.43;;;5.55;;
10882;SDS011;5494;51.796;10.952;2022-12-05T03:45:54;8.98;;;5.95;;
10882;SDS011;5494;51.796;10.952;2022-12-05T03:48:33;9.68;;;5.57;;
10882;SDS011;5494;51.796;10.952;2022-12-05T03:51:05;7.97;;;5.53;;
10882;SDS011;5494;51.796;10.952;2022-12-05T03:53:40;11.93;;;6.28;;
10882;SDS011;5494;51.796;10.952;2022-12-05T03:56:15;8.32;;;5.53;;
10882;SDS011;5494;51.796;10.952;2022-12-05T03:58:51;8.65;;;5.18;;
10882;SDS011;5494;51.796;10.952;2022-12-05T04:01:25;8.48;;;5.25;;
10882;SDS011;5494;51.796;10.952;2022-12-05T04:04:01;9.00;;;5.65;;
10882;SDS011;5494;51.796;10.952;2022-12-05T04:06:37;8.60;;;5.13;;
10882;SDS011;5494;51.796;10.952;2022-12-05T04:09:08;7.70;;;5.27;;
10882;SDS011;5494;51.796;10.952;2022-12-05T04:11:44;7.68;;;5.30;;
10882;SDS011;5494;51.796;10.952;2022-12-05T04:14:19;7.82;;;5.15;;
10882;SDS011;5494;51.796;10.952;2022-12-05T04:16:55;10.20;;;4.88;;
10882;SDS011;5494;51.796;10.952;2022-12-05T04:19:32;7.63;;;4.50;;
10882;SDS011;5494;51.796;10.952;2022-12-05T04:22:24;7.60;;;4.60;;
10882;SDS011;5494;51.796;10.952;2022-12-05T04:24:54;6.47;;;4.50;;
10882;SDS011;5494;51.796;10.952;2022-12-05T04:27:45;7.40;;;4.65;;
10882;SDS011;5494;51.796;10.952;2022-12-05T04:30:27;6.00;;;4.75;;
10882;SDS011;5494;51.796;10.952;2022-12-05T04:33:03;6.63;;;4.90;;
10882;SDS011;5494;51.796;10.952;2022-12-05T04:35:40;6.05;;;4.03;;
10882;SDS011;5494;51.796;10.952;2022-12-05T04:38:16;7.72;;;4.40;;
10882;SDS011;5494;51.796;10.952;2022-12-05T04:40:52;7.05;;;4.60;;
10882;SDS011;5494;51.796;10.952;2022-12-05T04:43:26;6.47;;;4.18;;
10882;SDS011;5494;51.796;10.952;2022-12-05T04:46:00;8.13;;;4.28;;
10882;SDS011;5494;51.796;10.952;2022-12-05T04:48:35;5.15;;;4.22;;
10882;SDS011;5494;51.796;10.952;2022-12-05T04:51:11;7.20;;;4.90;;
10882;SDS011;5494;51.796;10.952;2022-12-05T04:53:45;8.45;;;5.30;;
10882;SDS011;5494;51.796;10.952;2022-12-05T04:56:19;7.68;;;5.75;;
10882;SDS011;5494;51.796;10.952;2022-12-05T04:58:53;10.18;;;6.57;;
10882;SDS011;5494;51.796;10.952;2022-12-05T05:01:23;8.45;;;6.13;;
10882;SDS011;5494;51.796;10.952;2022-12-05T05:03:58;8.07;;;6.30;;
10882;SDS011;5494;51.796;10.952;2022-12-05T05:06:36;8.65;;;5.57;;
10882;SDS011;5494;51.796;10.952;2022-12-05T05:09:07;8.38;;;5.90;;
10882;SDS011;5494;51.796;10.952;2022-12-05T05:11:36;6.15;;;5.13;;
10882;SDS011;5494;51.796;10.952;2022-12-05T05:14:04;7.00;;;4.85;;
10882;SDS011;5494;51.796;10.952;2022-12-05T05:16:34;6.33;;;4.50;;
10882;SDS011;5494;51.796;10.952;2022-12-05T05:19:06;9.27;;;5.90;;
10882;SDS011;5494;51.796;10.952;2022-12-05T05:21:39;7.70;;;4.80;;
10882;SDS011;5494;51.796;10.952;2022-12-05T05:24:09;5.60;;;4.27;;
10882;SDS011;5494;51.796;10.952;2022-12-05T05:26:39;4.63;;;3.97;;
10882;SDS011;5494;51.796;10.952;2022-12-05T05:29:10;6.53;;;4.60;;
10882;SDS011;5494;51.796;10.952;2022-12-05T05:31:40;4.30;;;3.90;;
10882;SDS011;5494;51.796;10.952;2022-12-05T05:34:10;6.70;;;4.55;;
10882;SDS011;5494;51.796;10.952;2022-12-05T05:36:42;6.78;;;3.83;;
10882;SDS011;5494;51.796;10.952;2022-12-05T05:39:11;5.75;;;4.13;;
10882;SDS011;5494;51.796;10.952;2022-12-05T05:41:41;6.85;;;4.22;;
10882;SDS011;5494;51.796;10.952;2022-12-05T05:44:10;4.77;;;4.10;;
10882;SDS011;5494;51.796;10.952;2022-12-05T05:46:40;5.73;;;4.30;;
10882;SDS011;5494;51.796;10.952;2022-12-05T05:49:09;6.77;;;4.83;;
10882;SDS011;5494;51.796;10.952;2022-12-05T05:51:37;6.67;;;5.03;;
10882;SDS011;5494;51.796;10.952;2022-12-05T05:54:07;5.90;;;4.97;;
10882;SDS011;5494;51.796;10.952;2022-12-05T05:56:36;6.82;;;5.15;;
10882;SDS011;5494;51.796;10.952;2022-12-05T05:59:06;7.18;;;4.55;;
10882;SDS011;5494;51.796;10.952;2022-12-05T06:01:35;4.97;;;4.13;;
10882;SDS011;5494;51.796;10.952;2022-12-05T06:04:03;5.40;;;3.83;;
10882;SDS011;5494;51.796;10.952;2022-12-05T06:06:33;5.93;;;4.13;;
10882;SDS011;5494;51.796;10.952;2022-12-05T06:09:01;4.47;;;3.65;;
10882;SDS011;5494;51.796;10.952;2022-12-05T06:11:30;5.53;;;3.90;;
10882;SDS011;5494;51.796;10.952;2022-12-05T06:13:58;5.43;;;4.20;;
10882;SDS011;5494;51.796;10.952;2022-12-05T06:16:28;5.38;;;3.83;;
10882;SDS011;5494;51.796;10.952;2022-12-05T06:18:57;5.10;;;3.43;;
10882;SDS011;5494;51.796;10.952;2022-12-05T06:21:26;4.45;;;3.90;;
10882;SDS011;5494;51.796;10.952;2022-12-05T06:23:54;3.83;;;3.45;;
10882;SDS011;5494;51.796;10.952;2022-12-05T06:26:22;3.90;;;3.50;;
10882;SDS011;5494;51.796;10.952;2022-12-05T06:28:52;4.55;;;3.70;;
10882;SDS011;5494;51.796;10.952;2022-12-05T06:31:21;4.43;;;3.88;;
10882;SDS011;5494;51.796;10.952;2022-12-05T06:33:52;5.87;;;4.30;;
10882;SDS011;5494;51.796;10.952;2022-12-05T06:36:20;6.40;;;4.67;;
10882;SDS011;5494;51.796;10.952;2022-12-05T06:38:48;5.88;;;4.00;;
10882;SDS011;5494;51.796;10.952;2022-12-05T06:41:17;5.22;;;3.88;;
10882;SDS011;5494;51.796;10.952;2022-12-05T06:43:52;5.37;;;3.60;;
10882;SDS011;5494;51.796;10.952;2022-12-05T06:46:27;5.33;;;3.90;;
10882;SDS011;5494;51.796;10.952;2022-12-05T06:48:56;5.73;;;3.77;;
10882;SDS011;5494;51.796;10.952;2022-12-05T06:51:25;6.30;;;4.53;;
10882;SDS011;5494;51.796;10.952;2022-12-05T06:53:54;6.72;;;4.88;;
10882;SDS011;5494;51.796;10.952;2022-12-05T06:56:22;7.20;;;5.35;;
10882;SDS011;5494;51.796;10.952;2022-12-05T06:58:52;6.25;;;4.53;;
10882;SDS011;5494;51.796;10.952;2022-12-05T07:01:21;6.80;;;4.97;;
10882;SDS011;5494;51.796;10.952;2022-12-05T07:04:08;6.00;;;4.30;;
10882;SDS011;5494;51.796;10.952;2022-12-05T07:06:41;6.27;;;4.83;;
10882;SDS011;5494;51.796;10.952;2022-12-05T07:09:16;7.30;;;5.18;;
10882;SDS011;5494;51.796;10.952;2022-12-05T07:11:46;5.77;;;5.13;;
10882;SDS011;5494;51.796;10.952;2022-12-05T07:14:17;7.20;;;5.13;;
10882;SDS011;5494;51.796;10.952;2022-12-05T07:17:05;5.63;;;4.60;;
10882;SDS011;5494;51.796;10.952;2022-12-05T07:19:33;5.03;;;3.60;;
10882;SDS011;5494;51.796;10.952;2022-12-05T07:22:01;6.27;;;4.57;;
10882;SDS011;5494;51.796;10.952;2022-12-05T07:24:32;7.67;;;4.53;;
10882;SDS011;5494;51.796;10.952;2022-12-05T07:27:00;6.10;;;4.80;;
10882;SDS011;5494;51.796;10.952;2022-12-05T07:29:30;8.47;;;5.43;;
10882;SDS011;5494;51.796;10.952;2022-12-05T07:31:58;6.27;;;5.20;;
10882;SDS011;5494;51.796;10.952;2022-12-05T07:34:27;7.57;;;5.13;;
10882;SDS011;5494;51.796;10.952;2022-12-05T07:36:55;7.93;;;6.30;;
10882;SDS011;5494;51.796;10.952;2022-12-05T07:39:29;6.45;;;5.03;;
10882;SDS011;5494;51.796;10.952;2022-12-05T07:41:57;8.20;;;5.93;;
10882;SDS011;5494;51.796;10.952;2022-12-05T07:44:26;7.10;;;5.30;;
10882;SDS011;5494;51.796;10.952;2022-12-05T07:46:56;7.57;;;5.70;;
10882;SDS011;5494;51.796;10.952;2022-12-05T07:49:24;6.50;;;5.17;;
10882;SDS011;5494;51.796;10.952;2022-12-05T07:51:52;6.13;;;4.83;;
10882;SDS011;5494;51.796;10.952;2022-12-05T07:54:20;6.07;;;4.73;;
10882;SDS011;5494;51.796;10.952;2022-12-05T07:56:49;8.10;;;5.50;;
10882;SDS011;5494;51.796;10.952;2022-12-05T07:59:17;8.63;;;5.17;;
10882;SDS011;5494;51.796;10.952;2022-12-05T08:01:45;6.90;;;5.13;;
10882;SDS011;5494;51.796;10.952;2022-12-05T08:04:14;9.27;;;5.60;;
10882;SDS011;5494;51.796;10.952;2022-12-05T08:06:43;5.77;;;4.70;;
10882;SDS011;5494;51.796;10.952;2022-12-05T08:09:11;7.30;;;5.43;;
10882;SDS011;5494;51.796;10.952;2022-12-05T08:11:39;6.20;;;4.80;;
10882;SDS011;5494;51.796;10.952;2022-12-05T08:14:10;6.07;;;5.03;;
10882;SDS011;5494;51.796;10.952;2022-12-05T08:16:38;6.23;;;4.47;;
10882;SDS011;5494;51.796;10.952;2022-12-05T08:19:07;8.47;;;5.87;;
10882;SDS011;5494;51.796;10.952;2022-12-05T08:21:40;9.00;;;6.70;;
10882;SDS011;5494;51.796;10.952;2022-12-05T08:24:09;11.23;;;7.03;;
10882;SDS011;5494;51.796;10.952;2022-12-05T08:26:38;10.37;;;7.13;;
10882;SDS011;5494;51.796;10.952;2022-12-05T08:29:07;10.33;;;6.47;;
10882;SDS011;5494;51.796;10.952;2022-12-05T08:31:38;12.13;;;6.67;;
10882;SDS011;5494;51.796;10.952;2022-12-05T08:34:12;13.77;;;6.30;;
10882;SDS011;5494;51.796;10.952;2022-12-05T08:36:43;10.13;;;6.27;;
10882;SDS011;5494;51.796;10.952;2022-12-05T08:39:13;10.77;;;6.13;;
10882;SDS011;5494;51.796;10.952;2022-12-05T08:41:44;9.67;;;5.60;;
10882;SDS011;5494;51.796;10.952;2022-12-05T08:44:14;10.23;;;5.60;;
10882;SDS011;5494;51.796;10.952;2022-12-05T08:46:45;10.07;;;6.40;;
10882;SDS011;5494;51.796;10.952;2022-12-05T08:49:15;9.57;;;6.27;;
10882;SDS011;5494;51.796;10.952;2022-12-05T08:51:46;7.97;;;5.33;;
10882;SDS011;5494;51.796;10.952;2022-12-05T08:54:14;9.37;;;6.03;;
10882;SDS011;5494;51.796;10.952;2022-12-05T08:56:43;9.03;;;5.17;;
10882;SDS011;5494;51.796;10.952;2022-12-05T08:59:11;6.90;;;4.37;;
10882;SDS011;5494;51.796;10.952;2022-12-05T09:01:39;7.77;;;4.83;;
10882;SDS011;5494;51.796;10.952;2022-12-05T09:04:08;6.77;;;4.80;;
10882;SDS011;5494;51.796;10.952;2022-12-05T09:06:37;7.50;;;5.10;;
10882;SDS011;5494;51.796;10.952;2022-12-05T09:09:09;7.80;;;4.87;;
10882;SDS011;5494;51.796;10.952;2022-12-05T09:11:39;8.63;;;5.47;;
10882;SDS011;5494;51.796;10.952;2022-12-05T09:14:12;7.90;;;5.57;;
10882;SDS011;5494;51.796;10.952;2022-12-05T09:16:42;7.60;;;5.40;;
10882;SDS011;5494;51.796;10.952;2022-12-05T09:19:13;10.17;;;5.80;;
10882;SDS011;5494;51.796;10.952;2022-12-05T09:21:43;7.40;;;5.70;;
10882;SDS011;5494;51.796;10.952;2022-12-05T09:24:13;7.90;;;5.50;;
10882;SDS011;5494;51.796;10.952;2022-12-05T09:26:41;7.83;;;5.70;;
10882;SDS011;5494;51.796;10.952;2022-12-05T09:29:11;8.77;;;5.53;;
10882;SDS011;5494;51.796;10.952;2022-12-05T09:31:43;7.53;;;5.27;;
10882;SDS011;5494;51.796;10.952;2022-12-05T09:34:16;10.37;;;6.50;;
10882;SDS011;5494;51.796;10.952;2022-12-05T09:36:45;10.77;;;7.60;;
10882;SDS011;5494;51.796;10.952;2022-12-05T09:39:28;10.77;;;6.83;;
10882;SDS011;5494;51.796;10.952;2022-12-05T09:42:03;8.50;;;5.73;;
10882;SDS011;5494;51.796;10.952;2022-12-05T09:44:54;6.20;;;4.77;;
10882;SDS011;5494;51.796;10.952;2022-12-05T09:47:35;7.27;;;5.10;;
10882;SDS011;5494;51.796;10.952;2022-12-05T09:50:22;8.03;;;5.43;;
10882;SDS011;5494;51.796;10.952;2022-12-05T09:52:57;9.20;;;5.40;;
10882;SDS011;5494;51.796;10.952;2022-12-05T09:55:42;6.60;;;5.23;;
10882;SDS011;5494;51.796;10.952;2022-12-05T09:58:20;6.83;;;4.67;;
10882;SDS011;5494;51.796;10.952;2022-12-05T10:00:58;8.10;;;5.47;;
10882;SDS011;5494;51.796;10.952;2022-12-05T10:03:36;7.77;;;5.30;;
10882;SDS011;5494;51.796;10.952;2022-12-05T10:06:13;7.43;;;5.13;;
10882;SDS011;5494;51.796;10.952;2022-12-05T10:08:54;9.13;;;5.80;;
10882;SDS011;5494;51.796;10.952;2022-12-05T10:11:42;9.60;;;6.30;;
10882;SDS011;5494;51.796;10.952;2022-12-05T10:14:25;7.83;;;5.77;;
10882;SDS011;5494;51.796;10.952;2022-12-05T10:17:10;8.20;;;5.83;;
10882;SDS011;5494;51.796;10.952;2022-12-05T10:19:50;7.90;;;6.03;;
10882;SDS011;5494;51.796;10.952;2022-12-05T10:22:24;6.43;;;5.60;;
10882;SDS011;5494;51.796;10.952;2022-12-05T10:25:03;8.83;;;5.70;;
10882;SDS011;5494;51.796;10.952;2022-12-05T10:27:36;11.63;;;7.37;;
10882;SDS011;5494;51.796;10.952;2022-12-05T10:30:12;13.10;;;7.70;;
10882;SDS011;5494;51.796;10.952;2022-12-05T10:32:45;9.47;;;7.17;;
10882;SDS011;5494;51.796;10.952;2022-12-05T10:35:20;13.80;;;8.17;;
10882;SDS011;5494;51.796;10.952;2022-12-05T10:37:52;11.23;;;6.37;;
10882;SDS011;5494;51.796;10.952;2022-12-05T10:40:26;10.50;;;6.67;;
10882;SDS011;5494;51.796;10.952;2022-12-05T10:43:04;10.10;;;7.23;;
10882;SDS011;5494;51.796;10.952;2022-12-05T10:45:34;12.43;;;8.57;;
10882;SDS011;5494;51.796;10.952;2022-12-05T10:48:15;8.70;;;6.83;;
10882;SDS011;5494;51.796;10.952;2022-12-05T10:50:47;10.20;;;6.20;;
10882;SDS011;5494;51.796;10.952;2022-12-05T10:53:18;10.13;;;6.37;;
10882;SDS011;5494;51.796;10.952;2022-12-05T10:55:51;13.47;;;7.47;;
10882;SDS011;5494;51.796;10.952;2022-12-05T10:58:41;8.47;;;6.10;;
10882;SDS011;5494;51.796;10.952;2022-12-05T11:01:22;9.93;;;6.37;;
10882;SDS011;5494;51.796;10.952;2022-12-05T11:03:55;10.70;;;6.27;;
10882;SDS011;5494;51.796;10.952;2022-12-05T11:06:25;12.80;;;6.70;;
10882;SDS011;5494;51.796;10.952;2022-12-05T11:08:56;8.63;;;6.63;;
10882;SDS011;5494;51.796;10.952;2022-12-05T11:11:31;10.40;;;6.70;;
10882;SDS011;5494;51.796;10.952;2022-12-05T11:14:02;13.77;;;8.63;;
10882;SDS011;5494;51.796;10.952;2022-12-05T11:16:33;14.87;;;10.17;;
10882;SDS011;5494;51.796;10.952;2022-12-05T11:19:18;16.73;;;10.70;;
10882;SDS011;5494;51.796;10.952;2022-12-05T11:21:53;16.03;;;10.77;;
10882;SDS011;5494;51.796;10.952;2022-12-05T11:24:25;17.17;;;12.60;;
10882;SDS011;5494;51.796;10.952;2022-12-05T11:26:57;17.80;;;12.97;;
10882;SDS011;5494;51.796;10.952;2022-12-05T11:29:32;18.70;;;11.90;;
10882;SDS011;5494;51.796;10.952;2022-12-05T11:32:02;19.70;;;11.83;;
10882;SDS011;5494;51.796;10.952;2022-12-05T11:34:44;15.13;;;10.03;;
10882;SDS011;5494;51.796;10.952;2022-12-05T11:37:20;14.37;;;9.50;;
10882;SDS011;5494;51.796;10.952;2022-12-05T11:39:52;14.53;;;9.00;;
10882;SDS011;5494;51.796;10.952;2022-12-05T11:42:23;11.67;;;8.30;;
10882;SDS011;5494;51.796;10.952;2022-12-05T11:45:13;11.40;;;6.80;;
10882;SDS011;5494;51.796;10.952;2022-12-05T11:48:14;13.03;;;7.37;;
10882;SDS011;5494;51.796;10.952;2022-12-05T11:51:23;10.10;;;6.53;;
10882;SDS011;5494;51.796;10.952;2022-12-05T11:54:15;10.23;;;6.43;;
10882;SDS011;5494;51.796;10.952;2022-12-05T11:57:49;11.07;;;6.43;;
10882;SDS011;5494;51.796;10.952;2022-12-05T12:00:34;11.83;;;7.00;;
10882;SDS011;5494;51.796;10.952;2022-12-05T12:03:19;14.67;;;6.77;;
10882;SDS011;5494;51.796;10.952;2022-12-05T12:06:18;10.80;;;6.83;;
10882;SDS011;5494;51.796;10.952;2022-12-05T12:09:03;16.83;;;9.00;;
10882;SDS011;5494;51.796;10.952;2022-12-05T12:11:50;15.53;;;8.87;;
10882;SDS011;5494;51.796;10.952;2022-12-05T12:14:31;15.33;;;9.93;;
10882;SDS011;5494;51.796;10.952;2022-12-05T12:17:15;16.30;;;9.70;;
10882;SDS011;5494;51.796;10.952;2022-12-05T12:20:10;16.93;;;10.57;;
10882;SDS011;5494;51.796;10.952;2022-12-05T12:23:03;20.30;;;11.20;;
10882;SDS011;5494;51.796;10.952;2022-12-05T12:25:50;22.93;;;12.47;;
10882;SDS011;5494;51.796;10.952;2022-12-05T12:28:35;20.50;;;11.40;;
10882;SDS011;5494;51.796;10.952;2022-12-05T12:31:30;20.43;;;13.17;;
10882;SDS011;5494;51.796;10.952;2022-12-05T12:34:25;16.10;;;11.13;;
10882;SDS011;5494;51.796;10.952;2022-12-05T12:37:10;18.37;;;11.57;;
10882;SDS011;5494;51.796;10.952;2022-12-05T12:39:55;20.53;;;11.73;;
10882;SDS011;5494;51.796;10.952;2022-12-05T12:42:31;19.70;;;12.37;;
10882;SDS011;5494;51.796;10.952;2022-12-05T12:45:31;20.93;;;12.20;;
10882;SDS011;5494;51.796;10.952;2022-12-05T12:48:27;18.73;;;11.37;;
10882;SDS011;5494;51.796;10.952;2022-12-05T12:51:18;17.60;;;10.23;;
10882;SDS011;5494;51.796;10.952;2022-12-05T12:53:59;18.87;;;11.17;;
10882;SDS011;5494;51.796;10.952;2022-12-05T12:57:05;17.30;;;9.43;;
10882;SDS011;5494;51.796;10.952;2022-12-05T12:59:52;14.67;;;9.53;;
10882;SDS011;5494;51.796;10.952;2022-12-05T13:02:38;14.70;;;8.67;;
10882;SDS011;5494;51.796;10.952;2022-12-05T13:05:17;14.50;;;9.50;;
10882;SDS011;5494;51.796;10.952;2022-12-05T13:07:55;13.27;;;8.77;;
10882;SDS011;5494;51.796;10.952;2022-12-05T13:10:31;11.27;;;8.70;;
10882;SDS011;5494;51.796;10.952;2022-12-05T13:13:05;12.30;;;9.13;;
10882;SDS011;5494;51.796;10.952;2022-12-05T13:15:38;12.77;;;8.63;;
10882;SDS011;5494;51.796;10.952;2022-12-05T13:18:13;13.50;;;9.10;;
10882;SDS011;5494;51.796;10.952;2022-12-05T13:20:45;16.70;;;11.20;;
10882;SDS011;5494;51.796;10.952;2022-12-05T13:23:18;17.13;;;10.97;;
10882;SDS011;5494;51.796;10.952;2022-12-05T13:25:52;16.57;;;10.00;;
10882;SDS011;5494;51.796;10.952;2022-12-05T13:28:26;16.03;;;9.83;;
10882;SDS011;5494;51.796;10.952;2022-12-05T13:30:59;15.47;;;10.27;;
10882;SDS011;5494;51.796;10.952;2022-12-05T13:33:31;20.57;;;11.27;;
10882;SDS011;5494;51.796;10.952;2022-12-05T13:36:06;19.47;;;11.07;;
10882;SDS011;5494;51.796;10.952;2022-12-05T13:39:00;17.57;;;10.70;;
10882;SDS011;5494;51.796;10.952;2022-12-05T13:41:49;16.93;;;10.07;;
10882;SDS011;5494;51.796;10.952;2022-12-05T13:44:40;16.47;;;11.13;;
10882;SDS011;5494;51.796;10.952;2022-12-05T13:47:20;19.00;;;11.40;;
10882;SDS011;5494;51.796;10.952;2022-12-05T13:50:01;16.47;;;10.07;;
10882;SDS011;5494;51.796;10.952;2022-12-05T13:52:41;17.03;;;10.17;;
10882;SDS011;5494;51.796;10.952;2022-12-05T13:55:19;14.27;;;9.90;;
10882;SDS011;5494;51.796;10.952;2022-12-05T13:58:01;14.57;;;9.97;;
10882;SDS011;5494;51.796;10.952;2022-12-05T14:00:51;17.27;;;10.13;;
10882;SDS011;5494;51.796;10.952;2022-12-05T14:10:12;22.10;;;13.23;;
10882;SDS011;5494;51.796;10.952;2022-12-05T14:12:51;23.17;;;14.07;;
10882;SDS011;5494;51.796;10.952;2022-12-05T14:15:23;27.27;;;14.50;;
10882;SDS011;5494;51.796;10.952;2022-12-05T14:18:03;26.33;;;15.50;;
10882;SDS011;5494;51.796;10.952;2022-12-05T14:20:50;28.07;;;15.40;;
10882;SDS011;5494;51.796;10.952;2022-12-05T14:23:52;27.23;;;16.53;;
10882;SDS011;5494;51.796;10.952;2022-12-05T14:26:46;29.90;;;15.70;;
10882;SDS011;5494;51.796;10.952;2022-12-05T14:29:38;26.13;;;15.80;;
10882;SDS011;5494;51.796;10.952;2022-12-05T14:32:27;29.40;;;16.67;;
10882;SDS011;5494;51.796;10.952;2022-12-05T14:35:00;20.73;;;13.40;;
10882;SDS011;5494;51.796;10.952;2022-12-05T14:37:39;16.10;;;10.73;;
10882;SDS011;5494;51.796;10.952;2022-12-05T14:40:17;14.17;;;9.03;;
10882;SDS011;5494;51.796;10.952;2022-12-05T14:42:56;13.90;;;10.00;;
10882;SDS011;5494;51.796;10.952;2022-12-05T14:45:33;21.13;;;13.23;;
10882;SDS011;5494;51.796;10.952;2022-12-05T14:48:05;18.17;;;11.57;;
10882;SDS011;5494;51.796;10.952;2022-12-05T14:50:56;18.17;;;12.10;;
10882;SDS011;5494;51.796;10.952;2022-12-05T14:53:29;18.20;;;11.07;;
10882;SDS011;5494;51.796;10.952;2022-12-05T14:56:09;18.87;;;12.07;;
10882;SDS011;5494;51.796;10.952;2022-12-05T14:58:45;18.17;;;11.40;;
10882;SDS011;5494;51.796;10.952;2022-12-05T15:01:25;19.17;;;12.00;;
10882;SDS011;5494;51.796;10.952;2022-12-05T15:04:01;20.83;;;11.93;;
10882;SDS011;5494;51.796;10.952;2022-12-05T15:06:36;22.83;;;13.57;;
10882;SDS011;5494;51.796;10.952;2022-12-05T15:12:15;31.27;;;14.73;;
10882;SDS011;5494;51.796;10.952;2022-12-05T15:14:51;39.33;;;17.80;;
10882;SDS011;5494;51.796;10.952;2022-12-05T15:17:34;36.73;;;17.10;;
10882;SDS011;5494;51.796;10.952;2022-12-05T15:20:11;27.27;;;16.77;;
10882;SDS011;5494;51.796;10.952;2022-12-05T15:22:46;36.80;;;17.33;;
10882;SDS011;5494;51.796;10.952;2022-12-05T15:25:25;30.00;;;18.00;;
10882;SDS011;5494;51.796;10.952;2022-12-05T15:27:57;31.40;;;17.50;;
10882;SDS011;5494;51.796;10.952;2022-12-05T15:30:30;29.73;;;17.93;;
10882;SDS011;5494;51.796;10.952;2022-12-05T15:33:03;28.10;;;16.87;;
10882;SDS011;5494;51.796;10.952;2022-12-05T15:35:37;24.43;;;16.03;;
10882;SDS011;5494;51.796;10.952;2022-12-05T15:38:13;26.30;;;16.73;;
10882;SDS011;5494;51.796;10.952;2022-12-05T15:40:53;26.80;;;16.57;;
10882;SDS011;5494;51.796;10.952;2022-12-05T15:43:28;30.03;;;18.33;;